sensor_id;sensor_type;location;lat;lon;timestamp;pressure;altitude;pressure_sealevel;temperature
61977;BMP280;45905;50.570;10.428;2023-05-14T00:01:34;98080.66;;;13.01
61977;BMP280;45905;50.570;10.428;2023-05-14T00:04:03;98081.94;;;12.97
61977;BMP280;45905;50.570;10.428;2023-05-14T00:06:30;98079.75;;;12.95
61977;BMP280;45905;50.570;10.428;2023-05-14T00:08:57;98083.56;;;12.91
61977;BMP280;45905;50.570;10.428;2023-05-14T00:11:25;98077.03;;;12.88
61977;BMP280;45905;50.570;10.428;2023-05-14T00:13:52;98072.31;;;12.85
61977;BMP280;45905;50.570;10.428;2023-05-14T00:16:19;98078.50;;;12.83
61977;BMP280;45905;50.570;10.428;2023-05-14T00:18:46;98066.91;;;12.80
61977;BMP280;45905;50.570;10.428;2023-05-14T00:21:13;98071.34;;;12.78
61977;BMP280;45905;50.570;10.428;2023-05-14T00:23:40;98070.13;;;12.75
61977;BMP280;45905;50.570;10.428;2023-05-14T00:26:07;98066.94;;;12.73
61977;BMP280;45905;50.570;10.428;2023-05-14T00:28:35;98062.19;;;12.70
61977;BMP280;45905;50.570;10.428;2023-05-14T00:31:03;98065.88;;;12.67
61977;BMP280;45905;50.570;10.428;2023-05-14T00:33:30;98067.78;;;12.65
61977;BMP280;45905;50.570;10.428;2023-05-14T00:35:58;98059.50;;;12.56
61977;BMP280;45905;50.570;10.428;2023-05-14T00:38:26;98059.03;;;12.52
61977;BMP280;45905;50.570;10.428;2023-05-14T00:40:54;98058.59;;;12.49
61977;BMP280;45905;50.570;10.428;2023-05-14T00:43:22;98058.09;;;12.45
61977;BMP280;45905;50.570;10.428;2023-05-14T00:45:52;98062.72;;;12.42
61977;BMP280;45905;50.570;10.428;2023-05-14T00:48:21;98073.69;;;12.42
61977;BMP280;45905;50.570;10.428;2023-05-14T00:50:49;98068.41;;;12.44
61977;BMP280;45905;50.570;10.428;2023-05-14T00:53:20;98061.59;;;12.44
61977;BMP280;45905;50.570;10.428;2023-05-14T00:55:49;98065.44;;;12.40
61977;BMP280;45905;50.570;10.428;2023-05-14T00:58:17;98060.66;;;12.38
61977;BMP280;45905;50.570;10.428;2023-05-14T01:00:45;98060.97;;;12.35
61977;BMP280;45905;50.570;10.428;2023-05-14T01:03:12;98054.94;;;12.36
61977;BMP280;45905;50.570;10.428;2023-05-14T01:11:18;98054.16;;;12.35
61977;BMP280;45905;50.570;10.428;2023-05-14T01:16:33;98053.84;;;12.30
61977;BMP280;45905;50.570;10.428;2023-05-14T01:19:04;98052.59;;;12.26
61977;BMP280;45905;50.570;10.428;2023-05-14T01:21:37;98046.25;;;12.22
61977;BMP280;45905;50.570;10.428;2023-05-14T01:24:07;98048.16;;;12.20
61977;BMP280;45905;50.570;10.428;2023-05-14T01:26:35;98046.72;;;12.18
61977;BMP280;45905;50.570;10.428;2023-05-14T01:29:13;98039.44;;;12.15
61977;BMP280;45905;50.570;10.428;2023-05-14T01:31:44;98040.06;;;12.09
61977;BMP280;45905;50.570;10.428;2023-05-14T01:34:15;98039.13;;;12.02
61977;BMP280;45905;50.570;10.428;2023-05-14T01:36:47;98026.16;;;11.98
61977;BMP280;45905;50.570;10.428;2023-05-14T01:39:15;98037.25;;;11.97
61977;BMP280;45905;50.570;10.428;2023-05-14T01:41:45;98034.38;;;11.92
61977;BMP280;45905;50.570;10.428;2023-05-14T01:44:12;98040.75;;;11.88
61977;BMP280;45905;50.570;10.428;2023-05-14T01:46:40;98039.47;;;11.84
61977;BMP280;45905;50.570;10.428;2023-05-14T01:49:07;98038.53;;;11.77
61977;BMP280;45905;50.570;10.428;2023-05-14T01:51:34;98034.72;;;11.73
61977;BMP280;45905;50.570;10.428;2023-05-14T01:54:02;98044.25;;;11.71
61977;BMP280;45905;50.570;10.428;2023-05-14T01:56:29;98039.78;;;11.65
61977;BMP280;45905;50.570;10.428;2023-05-14T01:58:56;98033.47;;;11.62
61977;BMP280;45905;50.570;10.428;2023-05-14T02:01:23;98041.22;;;11.60
61977;BMP280;45905;50.570;10.428;2023-05-14T02:03:52;98053.59;;;11.55
61977;BMP280;45905;50.570;10.428;2023-05-14T02:06:20;98045.66;;;11.50
61977;BMP280;45905;50.570;10.428;2023-05-14T02:08:47;98042.47;;;11.48
61977;BMP280;45905;50.570;10.428;2023-05-14T02:11:14;98044.84;;;11.42
61977;BMP280;45905;50.570;10.428;2023-05-14T02:13:42;98044.53;;;11.37
61977;BMP280;45905;50.570;10.428;2023-05-14T02:16:09;98043.25;;;11.33
61977;BMP280;45905;50.570;10.428;2023-05-14T02:18:36;98039.28;;;11.31
61977;BMP280;45905;50.570;10.428;2023-05-14T02:21:03;98048.13;;;11.27
61977;BMP280;45905;50.570;10.428;2023-05-14T02:23:31;98047.78;;;11.22
61977;BMP280;45905;50.570;10.428;2023-05-14T02:26:09;98041.47;;;11.18
61977;BMP280;45905;50.570;10.428;2023-05-14T02:28:36;98041.91;;;11.14
61977;BMP280;45905;50.570;10.428;2023-05-14T02:31:03;98044.94;;;11.09
61977;BMP280;45905;50.570;10.428;2023-05-14T02:33:31;98043.63;;;11.05
61977;BMP280;45905;50.570;10.428;2023-05-14T02:35:58;98036.50;;;11.01
61977;BMP280;45905;50.570;10.428;2023-05-14T02:38:25;98038.53;;;10.98
61977;BMP280;45905;50.570;10.428;2023-05-14T02:40:55;98030.44;;;10.94
61977;BMP280;45905;50.570;10.428;2023-05-14T02:43:22;98037.59;;;10.91
61977;BMP280;45905;50.570;10.428;2023-05-14T02:45:51;98042.94;;;10.88
61977;BMP280;45905;50.570;10.428;2023-05-14T02:48:18;98041.84;;;10.83
61977;BMP280;45905;50.570;10.428;2023-05-14T02:50:45;98038.78;;;10.79
61977;BMP280;45905;50.570;10.428;2023-05-14T02:53:12;98036.59;;;10.76
61977;BMP280;45905;50.570;10.428;2023-05-14T02:55:39;98032.13;;;10.70
61977;BMP280;45905;50.570;10.428;2023-05-14T02:58:07;98035.91;;;10.67
61977;BMP280;45905;50.570;10.428;2023-05-14T03:00:34;98031.16;;;10.64
61977;BMP280;45905;50.570;10.428;2023-05-14T03:03:02;98032.22;;;10.61
61977;BMP280;45905;50.570;10.428;2023-05-14T03:05:29;98040.94;;;10.59
61977;BMP280;45905;50.570;10.428;2023-05-14T03:07:57;98045.50;;;10.55
61977;BMP280;45905;50.570;10.428;2023-05-14T03:10:24;98040.75;;;10.52
61977;BMP280;45905;50.570;10.428;2023-05-14T03:12:52;98043.59;;;10.49
61977;BMP280;45905;50.570;10.428;2023-05-14T03:15:19;98042.16;;;10.47
61977;BMP280;45905;50.570;10.428;2023-05-14T03:17:46;98034.06;;;10.44
61977;BMP280;45905;50.570;10.428;2023-05-14T03:20:14;98032.78;;;10.40
61977;BMP280;45905;50.570;10.428;2023-05-14T03:22:42;98033.06;;;10.37
61977;BMP280;45905;50.570;10.428;2023-05-14T03:25:09;98031.00;;;10.32
61977;BMP280;45905;50.570;10.428;2023-05-14T03:27:36;98034.78;;;10.29
61977;BMP280;45905;50.570;10.428;2023-05-14T03:30:04;98037.44;;;10.27
61977;BMP280;45905;50.570;10.428;2023-05-14T03:32:32;98032.06;;;10.22
61977;BMP280;45905;50.570;10.428;2023-05-14T03:34:59;98023.94;;;10.19
61977;BMP280;45905;50.570;10.428;2023-05-14T03:37:26;98028.69;;;10.14
61977;BMP280;45905;50.570;10.428;2023-05-14T03:39:53;98029.13;;;10.10
61977;BMP280;45905;50.570;10.428;2023-05-14T03:42:20;98032.91;;;10.06
61977;BMP280;45905;50.570;10.428;2023-05-14T03:44:47;98027.34;;;10.02
61977;BMP280;45905;50.570;10.428;2023-05-14T03:47:14;98032.53;;;10.01
61977;BMP280;45905;50.570;10.428;2023-05-14T03:49:41;98032.84;;;9.98
61977;BMP280;45905;50.570;10.428;2023-05-14T03:52:10;98026.34;;;9.95
61977;BMP280;45905;50.570;10.428;2023-05-14T03:54:38;98039.13;;;9.94
61977;BMP280;45905;50.570;10.428;2023-05-14T03:57:07;98027.72;;;9.90
61977;BMP280;45905;50.570;10.428;2023-05-14T03:59:34;98033.88;;;9.88
61977;BMP280;45905;50.570;10.428;2023-05-14T04:02:01;98029.75;;;9.87
61977;BMP280;45905;50.570;10.428;2023-05-14T04:04:28;98033.38;;;9.84
61977;BMP280;45905;50.570;10.428;2023-05-14T04:06:55;98030.03;;;9.84
61977;BMP280;45905;50.570;10.428;2023-05-14T04:09:23;98036.19;;;9.81
61977;BMP280;45905;50.570;10.428;2023-05-14T04:11:50;98033.16;;;9.78
61977;BMP280;45905;50.570;10.428;2023-05-14T04:14:17;98037.03;;;9.72
61977;BMP280;45905;50.570;10.428;2023-05-14T04:16:44;98039.88;;;9.70
61977;BMP280;45905;50.570;10.428;2023-05-14T04:19:11;98040.81;;;9.69
61977;BMP280;45905;50.570;10.428;2023-05-14T04:21:38;98041.75;;;9.68
61977;BMP280;45905;50.570;10.428;2023-05-14T04:24:06;98034.97;;;9.68
61977;BMP280;45905;50.570;10.428;2023-05-14T04:26:33;98032.72;;;9.65
61977;BMP280;45905;50.570;10.428;2023-05-14T04:29:01;98036.97;;;9.65
61977;BMP280;45905;50.570;10.428;2023-05-14T04:31:29;98041.09;;;9.66
61977;BMP280;45905;50.570;10.428;2023-05-14T04:33:57;98033.03;;;9.62
61977;BMP280;45905;50.570;10.428;2023-05-14T04:36:24;98043.28;;;9.61
61977;BMP280;45905;50.570;10.428;2023-05-14T04:38:52;98036.78;;;9.58
61977;BMP280;45905;50.570;10.428;2023-05-14T04:41:19;98041.03;;;9.58
61977;BMP280;45905;50.570;10.428;2023-05-14T04:43:49;98050.22;;;9.59
61977;BMP280;45905;50.570;10.428;2023-05-14T04:46:16;98040.75;;;9.61
61977;BMP280;45905;50.570;10.428;2023-05-14T04:48:43;98032.22;;;9.62
61977;BMP280;45905;50.570;10.428;2023-05-14T04:51:11;98043.94;;;9.63
61977;BMP280;45905;50.570;10.428;2023-05-14T04:53:38;98028.78;;;9.63
61977;BMP280;45905;50.570;10.428;2023-05-14T04:56:05;98030.31;;;9.64
61977;BMP280;45905;50.570;10.428;2023-05-14T04:58:32;98032.56;;;9.67
61977;BMP280;45905;50.570;10.428;2023-05-14T05:01:03;98030.25;;;9.73
61977;BMP280;45905;50.570;10.428;2023-05-14T05:03:31;98022.38;;;9.76
61977;BMP280;45905;50.570;10.428;2023-05-14T05:05:58;98032.44;;;9.85
61977;BMP280;45905;50.570;10.428;2023-05-14T05:08:25;98029.31;;;9.91
61977;BMP280;45905;50.570;10.428;2023-05-14T05:10:52;98025.56;;;9.95
61977;BMP280;45905;50.570;10.428;2023-05-14T05:13:19;98030.31;;;9.98
61977;BMP280;45905;50.570;10.428;2023-05-14T05:15:46;98030.00;;;10.01
61977;BMP280;45905;50.570;10.428;2023-05-14T05:18:14;98037.97;;;10.06
61977;BMP280;45905;50.570;10.428;2023-05-14T05:20:41;98034.97;;;10.10
61977;BMP280;45905;50.570;10.428;2023-05-14T05:23:08;98038.94;;;10.12
61977;BMP280;45905;50.570;10.428;2023-05-14T05:25:35;98035.81;;;10.18
61977;BMP280;45905;50.570;10.428;2023-05-14T05:28:02;98030.47;;;10.21
61977;BMP280;45905;50.570;10.428;2023-05-14T05:30:29;98029.53;;;10.22
61977;BMP280;45905;50.570;10.428;2023-05-14T05:32:57;98025.06;;;10.24
61977;BMP280;45905;50.570;10.428;2023-05-14T05:35:24;98026.22;;;10.29
61977;BMP280;45905;50.570;10.428;2023-05-14T05:37:51;98017.56;;;10.32
61977;BMP280;45905;50.570;10.428;2023-05-14T05:40:18;98022.94;;;10.37
61977;BMP280;45905;50.570;10.428;2023-05-14T05:42:45;98019.19;;;10.41
61977;BMP280;45905;50.570;10.428;2023-05-14T05:45:12;98019.66;;;10.44
61977;BMP280;45905;50.570;10.428;2023-05-14T05:47:40;98017.13;;;10.44
61977;BMP280;45905;50.570;10.428;2023-05-14T05:50:08;98018.84;;;10.44
61977;BMP280;45905;50.570;10.428;2023-05-14T05:52:35;98014.28;;;10.47
61977;BMP280;45905;50.570;10.428;2023-05-14T05:55:03;98015.75;;;10.49
61977;BMP280;45905;50.570;10.428;2023-05-14T05:57:30;98017.00;;;10.53
61977;BMP280;45905;50.570;10.428;2023-05-14T05:59:57;98010.69;;;10.57
61977;BMP280;45905;50.570;10.428;2023-05-14T06:02:24;98004.84;;;10.57
61977;BMP280;45905;50.570;10.428;2023-05-14T06:04:52;98003.56;;;10.61
61977;BMP280;45905;50.570;10.428;2023-05-14T06:07:19;98014.34;;;10.63
61977;BMP280;45905;50.570;10.428;2023-05-14T06:09:46;98002.03;;;10.68
61977;BMP280;45905;50.570;10.428;2023-05-14T06:12:13;98005.03;;;10.71
61977;BMP280;45905;50.570;10.428;2023-05-14T06:14:40;98009.47;;;10.77
61977;BMP280;45905;50.570;10.428;2023-05-14T06:17:07;98005.84;;;10.79
61977;BMP280;45905;50.570;10.428;2023-05-14T06:19:34;98006.19;;;10.84
61977;BMP280;45905;50.570;10.428;2023-05-14T06:22:01;98003.50;;;10.86
61977;BMP280;45905;50.570;10.428;2023-05-14T06:24:29;98010.50;;;10.91
61977;BMP280;45905;50.570;10.428;2023-05-14T06:26:56;98007.47;;;10.96
61977;BMP280;45905;50.570;10.428;2023-05-14T06:29:24;98006.09;;;11.01
61977;BMP280;45905;50.570;10.428;2023-05-14T06:31:51;98009.72;;;11.06
61977;BMP280;45905;50.570;10.428;2023-05-14T06:34:18;98003.56;;;11.09
61977;BMP280;45905;50.570;10.428;2023-05-14T06:36:45;98009.59;;;11.16
61977;BMP280;45905;50.570;10.428;2023-05-14T06:39:12;98001.34;;;11.22
61977;BMP280;45905;50.570;10.428;2023-05-14T06:41:40;97996.16;;;11.31
61977;BMP280;45905;50.570;10.428;2023-05-14T06:44:13;97986.81;;;11.39
61977;BMP280;45905;50.570;10.428;2023-05-14T06:46:40;97991.75;;;11.48
61977;BMP280;45905;50.570;10.428;2023-05-14T06:49:07;97982.38;;;11.57
61977;BMP280;45905;50.570;10.428;2023-05-14T06:51:34;97968.75;;;11.65
61977;BMP280;45905;50.570;10.428;2023-05-14T06:54:01;97975.38;;;11.74
61977;BMP280;45905;50.570;10.428;2023-05-14T06:56:28;97972.53;;;11.85
61977;BMP280;45905;50.570;10.428;2023-05-14T06:58:55;97973.31;;;11.93
61977;BMP280;45905;50.570;10.428;2023-05-14T07:01:22;97977.41;;;12.02
61977;BMP280;45905;50.570;10.428;2023-05-14T07:03:50;97967.06;;;12.11
61977;BMP280;45905;50.570;10.428;2023-05-14T07:06:17;97968.63;;;12.20
61977;BMP280;45905;50.570;10.428;2023-05-14T07:08:44;97966.69;;;12.30
61977;BMP280;45905;50.570;10.428;2023-05-14T07:11:14;97966.66;;;12.38
61977;BMP280;45905;50.570;10.428;2023-05-14T07:13:42;97956.47;;;12.45
61977;BMP280;45905;50.570;10.428;2023-05-14T07:16:09;97949.59;;;12.54
61977;BMP280;45905;50.570;10.428;2023-05-14T07:18:36;97951.31;;;12.61
61977;BMP280;45905;50.570;10.428;2023-05-14T07:21:04;97951.34;;;12.69
61977;BMP280;45905;50.570;10.428;2023-05-14T07:23:33;97944.31;;;12.71
61977;BMP280;45905;50.570;10.428;2023-05-14T07:26:04;97943.03;;;12.75
61977;BMP280;45905;50.570;10.428;2023-05-14T07:28:32;97942.34;;;12.80
61977;BMP280;45905;50.570;10.428;2023-05-14T07:30:59;97944.84;;;12.88
61977;BMP280;45905;50.570;10.428;2023-05-14T07:33:26;97932.72;;;12.98
61977;BMP280;45905;50.570;10.428;2023-05-14T07:35:54;97933.13;;;13.09
61977;BMP280;45905;50.570;10.428;2023-05-14T07:38:21;97932.91;;;13.18
61977;BMP280;45905;50.570;10.428;2023-05-14T07:40:48;97938.88;;;13.25
61977;BMP280;45905;50.570;10.428;2023-05-14T07:43:15;97937.84;;;13.34
61977;BMP280;45905;50.570;10.428;2023-05-14T07:45:44;97940.94;;;13.44
61977;BMP280;45905;50.570;10.428;2023-05-14T07:48:11;97930.06;;;13.50
61977;BMP280;45905;50.570;10.428;2023-05-14T07:50:38;97930.38;;;13.54
61977;BMP280;45905;50.570;10.428;2023-05-14T07:53:05;97918.69;;;13.60
61977;BMP280;45905;50.570;10.428;2023-05-14T07:55:32;97917.81;;;13.67
61977;BMP280;45905;50.570;10.428;2023-05-14T07:58:00;97914.59;;;13.73
61977;BMP280;45905;50.570;10.428;2023-05-14T08:00:27;97910.72;;;13.77
61977;BMP280;45905;50.570;10.428;2023-05-14T08:02:54;97909.09;;;13.84
61977;BMP280;45905;50.570;10.428;2023-05-14T08:05:22;97902.94;;;13.93
61977;BMP280;45905;50.570;10.428;2023-05-14T08:07:49;97902.53;;;14.03
61977;BMP280;45905;50.570;10.428;2023-05-14T08:10:16;97895.41;;;14.13
61977;BMP280;45905;50.570;10.428;2023-05-14T08:12:43;97892.06;;;14.27
61977;BMP280;45905;50.570;10.428;2023-05-14T08:15:11;97897.31;;;14.39
61977;BMP280;45905;50.570;10.428;2023-05-14T08:17:40;97906.09;;;14.51
61977;BMP280;45905;50.570;10.428;2023-05-14T08:20:09;97899.53;;;14.63
61977;BMP280;45905;50.570;10.428;2023-05-14T08:22:37;97893.00;;;14.74
61977;BMP280;45905;50.570;10.428;2023-05-14T08:25:05;97894.47;;;14.83
61977;BMP280;45905;50.570;10.428;2023-05-14T08:27:33;97891.00;;;14.90
61977;BMP280;45905;50.570;10.428;2023-05-14T08:30:00;97884.44;;;14.96
61977;BMP280;45905;50.570;10.428;2023-05-14T08:32:28;97896.28;;;15.03
61977;BMP280;45905;50.570;10.428;2023-05-14T08:34:55;97886.56;;;15.13
61977;BMP280;45905;50.570;10.428;2023-05-14T08:37:22;97886.25;;;15.22
61977;BMP280;45905;50.570;10.428;2023-05-14T08:39:49;97880.03;;;15.31
61977;BMP280;45905;50.570;10.428;2023-05-14T08:42:20;97872.66;;;15.42
61977;BMP280;45905;50.570;10.428;2023-05-14T08:44:52;97874.28;;;15.49
61977;BMP280;45905;50.570;10.428;2023-05-14T08:47:22;97873.16;;;15.58
61977;BMP280;45905;50.570;10.428;2023-05-14T08:50:08;97866.53;;;15.64
61977;BMP280;45905;50.570;10.428;2023-05-14T08:52:36;97874.84;;;15.72
61977;BMP280;45905;50.570;10.428;2023-05-14T08:55:05;97874.88;;;15.78
61977;BMP280;45905;50.570;10.428;2023-05-14T08:57:33;97874.72;;;15.86
61977;BMP280;45905;50.570;10.428;2023-05-14T09:00:02;97874.38;;;15.95
61977;BMP280;45905;50.570;10.428;2023-05-14T09:02:50;97861.72;;;16.08
61977;BMP280;45905;50.570;10.428;2023-05-14T09:05:19;97860.19;;;16.20
61977;BMP280;45905;50.570;10.428;2023-05-14T09:07:46;97874.00;;;16.31
61977;BMP280;45905;50.570;10.428;2023-05-14T09:10:15;97865.78;;;16.42
61977;BMP280;45905;50.570;10.428;2023-05-14T09:12:42;97867.56;;;16.48
61977;BMP280;45905;50.570;10.428;2023-05-14T09:15:09;97855.81;;;16.60
61977;BMP280;45905;50.570;10.428;2023-05-14T09:17:36;97860.38;;;16.70
61977;BMP280;45905;50.570;10.428;2023-05-14T09:20:05;97856.06;;;16.83
61977;BMP280;45905;50.570;10.428;2023-05-14T09:22:33;97851.34;;;16.93
61977;BMP280;45905;50.570;10.428;2023-05-14T09:25:09;97850.41;;;17.00
61977;BMP280;45905;50.570;10.428;2023-05-14T09:27:38;97858.28;;;17.05
61977;BMP280;45905;50.570;10.428;2023-05-14T09:30:08;97856.91;;;17.09
61977;BMP280;45905;50.570;10.428;2023-05-14T09:32:41;97857.31;;;17.13
61977;BMP280;45905;50.570;10.428;2023-05-14T09:35:22;97857.13;;;17.14
61977;BMP280;45905;50.570;10.428;2023-05-14T09:37:52;97849.63;;;17.19
61977;BMP280;45905;50.570;10.428;2023-05-14T09:40:22;97851.59;;;17.23
61977;BMP280;45905;50.570;10.428;2023-05-14T09:42:50;97833.69;;;17.30
61977;BMP280;45905;50.570;10.428;2023-05-14T09:45:17;97835.25;;;17.37
61977;BMP280;45905;50.570;10.428;2023-05-14T09:47:45;97839.38;;;17.44
61977;BMP280;45905;50.570;10.428;2023-05-14T09:50:12;97843.53;;;17.39
61977;BMP280;45905;50.570;10.428;2023-05-14T09:52:39;97831.09;;;17.36
61977;BMP280;45905;50.570;10.428;2023-05-14T09:55:07;97828.53;;;17.42
61977;BMP280;45905;50.570;10.428;2023-05-14T09:57:34;97829.13;;;17.51
61977;BMP280;45905;50.570;10.428;2023-05-14T10:00:02;97832.66;;;17.56
61977;BMP280;45905;50.570;10.428;2023-05-14T10:02:36;97829.72;;;17.59
61977;BMP280;45905;50.570;10.428;2023-05-14T10:05:05;97830.88;;;17.63
61977;BMP280;45905;50.570;10.428;2023-05-14T10:07:46;97822.38;;;17.69
61977;BMP280;45905;50.570;10.428;2023-05-14T10:10:23;97820.63;;;17.76
61977;BMP280;45905;50.570;10.428;2023-05-14T10:13:01;97830.66;;;17.83
61977;BMP280;45905;50.570;10.428;2023-05-14T10:15:39;97827.31;;;17.89
61977;BMP280;45905;50.570;10.428;2023-05-14T10:18:15;97822.38;;;17.94
61977;BMP280;45905;50.570;10.428;2023-05-14T10:20:52;97825.91;;;17.99
61977;BMP280;45905;50.570;10.428;2023-05-14T10:23:23;97814.66;;;18.00
61977;BMP280;45905;50.570;10.428;2023-05-14T10:25:50;97822.72;;;18.04
61977;BMP280;45905;50.570;10.428;2023-05-14T10:28:17;97819.75;;;18.07
61977;BMP280;45905;50.570;10.428;2023-05-14T10:30:45;97812.47;;;18.04
61977;BMP280;45905;50.570;10.428;2023-05-14T10:33:14;97823.34;;;17.99
61977;BMP280;45905;50.570;10.428;2023-05-14T10:36:05;97809.56;;;17.94
61977;BMP280;45905;50.570;10.428;2023-05-14T10:38:35;97812.91;;;17.88
61977;BMP280;45905;50.570;10.428;2023-05-14T10:41:10;97811.72;;;17.84
61977;BMP280;45905;50.570;10.428;2023-05-14T10:43:40;97807.19;;;17.86
61977;BMP280;45905;50.570;10.428;2023-05-14T10:46:10;97806.81;;;17.89
61977;BMP280;45905;50.570;10.428;2023-05-14T10:48:42;97804.44;;;17.94
61977;BMP280;45905;50.570;10.428;2023-05-14T10:51:10;97802.81;;;17.99
61977;BMP280;45905;50.570;10.428;2023-05-14T10:53:41;97797.50;;;18.01
61977;BMP280;45905;50.570;10.428;2023-05-14T10:56:12;97810.44;;;18.12
61977;BMP280;45905;50.570;10.428;2023-05-14T10:58:43;97792.84;;;18.22
61977;BMP280;45905;50.570;10.428;2023-05-14T11:01:12;97790.66;;;18.32
61977;BMP280;45905;50.570;10.428;2023-05-14T11:03:44;97788.88;;;18.32
61977;BMP280;45905;50.570;10.428;2023-05-14T11:06:14;97777.63;;;18.33
61977;BMP280;45905;50.570;10.428;2023-05-14T11:08:43;97784.13;;;18.35
61977;BMP280;45905;50.570;10.428;2023-05-14T11:11:11;97772.25;;;18.41
61977;BMP280;45905;50.570;10.428;2023-05-14T11:13:41;97766.88;;;18.49
61977;BMP280;45905;50.570;10.428;2023-05-14T11:16:09;97773.13;;;18.59
61977;BMP280;45905;50.570;10.428;2023-05-14T11:18:39;97769.31;;;18.68
61977;BMP280;45905;50.570;10.428;2023-05-14T11:21:07;97760.19;;;18.78
61977;BMP280;45905;50.570;10.428;2023-05-14T11:23:35;97757.09;;;18.93
61977;BMP280;45905;50.570;10.428;2023-05-14T11:26:02;97754.44;;;19.06
61977;BMP280;45905;50.570;10.428;2023-05-14T11:28:29;97749.63;;;19.16
61977;BMP280;45905;50.570;10.428;2023-05-14T11:30:56;97753.78;;;19.34
61977;BMP280;45905;50.570;10.428;2023-05-14T11:33:26;97744.28;;;19.52
61977;BMP280;45905;50.570;10.428;2023-05-14T11:35:54;97752.28;;;19.68
61977;BMP280;45905;50.570;10.428;2023-05-14T11:38:21;97743.41;;;19.82
61977;BMP280;45905;50.570;10.428;2023-05-14T11:40:57;97735.56;;;20.06
61977;BMP280;45905;50.570;10.428;2023-05-14T11:43:25;97732.31;;;20.28
61977;BMP280;45905;50.570;10.428;2023-05-14T11:45:55;97733.16;;;20.40
61977;BMP280;45905;50.570;10.428;2023-05-14T11:48:23;97726.53;;;20.61
61977;BMP280;45905;50.570;10.428;2023-05-14T11:50:52;97721.41;;;20.83
61977;BMP280;45905;50.570;10.428;2023-05-14T11:53:28;97708.19;;;21.02
61977;BMP280;45905;50.570;10.428;2023-05-14T11:55:56;97721.22;;;21.19
61977;BMP280;45905;50.570;10.428;2023-05-14T11:58:24;97714.84;;;21.32
61977;BMP280;45905;50.570;10.428;2023-05-14T12:00:54;97708.44;;;21.46
61977;BMP280;45905;50.570;10.428;2023-05-14T12:03:22;97719.31;;;21.48
61977;BMP280;45905;50.570;10.428;2023-05-14T12:05:57;97714.91;;;21.60
61977;BMP280;45905;50.570;10.428;2023-05-14T12:08:28;97712.91;;;21.61
61977;BMP280;45905;50.570;10.428;2023-05-14T12:10:59;97707.16;;;21.71
61977;BMP280;45905;50.570;10.428;2023-05-14T12:13:28;97708.03;;;21.87
61977;BMP280;45905;50.570;10.428;2023-05-14T12:15:58;97697.78;;;22.03
61977;BMP280;45905;50.570;10.428;2023-05-14T12:18:28;97697.66;;;21.98
61977;BMP280;45905;50.570;10.428;2023-05-14T12:21:02;97694.09;;;21.99
61977;BMP280;45905;50.570;10.428;2023-05-14T12:23:31;97694.63;;;22.01
61977;BMP280;45905;50.570;10.428;2023-05-14T12:26:03;97686.69;;;22.03
61977;BMP280;45905;50.570;10.428;2023-05-14T12:28:33;97684.66;;;22.05
61977;BMP280;45905;50.570;10.428;2023-05-14T12:31:04;97682.59;;;22.07
61977;BMP280;45905;50.570;10.428;2023-05-14T12:33:31;97684.88;;;22.03
61977;BMP280;45905;50.570;10.428;2023-05-14T12:35:59;97688.56;;;22.07
61977;BMP280;45905;50.570;10.428;2023-05-14T12:38:47;97679.34;;;22.11
61977;BMP280;45905;50.570;10.428;2023-05-14T12:41:14;97676.66;;;22.06
61977;BMP280;45905;50.570;10.428;2023-05-14T12:43:43;97676.03;;;21.99
61977;BMP280;45905;50.570;10.428;2023-05-14T12:46:10;97679.63;;;21.98
61977;BMP280;45905;50.570;10.428;2023-05-14T12:48:37;97659.53;;;22.00
61977;BMP280;45905;50.570;10.428;2023-05-14T12:51:04;97649.63;;;22.09
61977;BMP280;45905;50.570;10.428;2023-05-14T12:53:34;97651.97;;;22.10
61977;BMP280;45905;50.570;10.428;2023-05-14T12:56:01;97645.25;;;22.09
61977;BMP280;45905;50.570;10.428;2023-05-14T12:58:28;97647.06;;;22.09
61977;BMP280;45905;50.570;10.428;2023-05-14T13:00:55;97642.78;;;22.14
61977;BMP280;45905;50.570;10.428;2023-05-14T13:03:23;97637.63;;;22.14
61977;BMP280;45905;50.570;10.428;2023-05-14T13:05:51;97646.38;;;22.13
61977;BMP280;45905;50.570;10.428;2023-05-14T13:08:21;97634.47;;;22.12
61977;BMP280;45905;50.570;10.428;2023-05-14T13:10:54;97636.31;;;22.00
61977;BMP280;45905;50.570;10.428;2023-05-14T13:13:22;97624.38;;;21.95
61977;BMP280;45905;50.570;10.428;2023-05-14T13:15:49;97634.31;;;22.02
61977;BMP280;45905;50.570;10.428;2023-05-14T13:18:17;97625.78;;;22.02
61977;BMP280;45905;50.570;10.428;2023-05-14T13:20:45;97625.38;;;21.94
61977;BMP280;45905;50.570;10.428;2023-05-14T13:23:15;97627.41;;;21.80
61977;BMP280;45905;50.570;10.428;2023-05-14T13:25:42;97627.47;;;21.69
61977;BMP280;45905;50.570;10.428;2023-05-14T13:28:10;97627.72;;;21.57
61977;BMP280;45905;50.570;10.428;2023-05-14T13:30:37;97620.81;;;21.46
61977;BMP280;45905;50.570;10.428;2023-05-14T13:33:04;97628.25;;;21.31
61977;BMP280;45905;50.570;10.428;2023-05-14T13:35:32;97635.78;;;21.22
61977;BMP280;45905;50.570;10.428;2023-05-14T13:38:00;97631.97;;;21.13
61977;BMP280;45905;50.570;10.428;2023-05-14T13:40:27;97627.72;;;21.07
61977;BMP280;45905;50.570;10.428;2023-05-14T13:42:54;97624.66;;;21.10
61977;BMP280;45905;50.570;10.428;2023-05-14T13:45:22;97613.03;;;21.19
61977;BMP280;45905;50.570;10.428;2023-05-14T13:47:49;97606.06;;;21.30
61977;BMP280;45905;50.570;10.428;2023-05-14T13:50:17;97601.75;;;21.47
61977;BMP280;45905;50.570;10.428;2023-05-14T13:52:44;97596.91;;;21.61
61977;BMP280;45905;50.570;10.428;2023-05-14T13:55:11;97589.34;;;21.71
61977;BMP280;45905;50.570;10.428;2023-05-14T13:57:38;97591.78;;;21.78
61977;BMP280;45905;50.570;10.428;2023-05-14T14:00:08;97587.94;;;21.80
61977;BMP280;45905;50.570;10.428;2023-05-14T14:02:35;97584.81;;;21.62
61977;BMP280;45905;50.570;10.428;2023-05-14T14:05:03;97579.66;;;21.62
61977;BMP280;45905;50.570;10.428;2023-05-14T14:07:31;97577.50;;;21.70
61977;BMP280;45905;50.570;10.428;2023-05-14T14:09:58;97577.56;;;21.75
61977;BMP280;45905;50.570;10.428;2023-05-14T14:12:27;97577.63;;;21.80